sensor_id;sensor_type;location;lat;lon;timestamp;pressure;altitude;pressure_sealevel;temperature;humidity
15558;BME280;7880;50.110;9.372;2022-11-03T00:04:09;4.638482237234712;;;4.562;100.0
15558;BME280;7880;50.110;9.372;2022-11-03T00:09:11;4.8300770184258;;;4.812;100.0
15558;BME280;7880;50.110;9.372;2022-11-03T00:14:21;4.714111705921823;;;4.687;100.0
15558;BME280;7880;50.110;9.372;2022-11-03T00:19:27;4.769573357910849;;;4.75;100.0
15558;BME280;7880;50.110;9.372;2022-11-03T00:24:27;4.668734016851522;;;4.687;100.0
15558;BME280;7880;50.110;9.372;2022-11-03T00:29:28;4.6989858069457116;;;4.687;100.0
15558;BME280;7880;50.110;9.372;2022-11-03T00:34:31;4.734279575297842;;;4.625;100.0
15558;BME280;7880;50.110;9.372;2022-11-03T00:39:34;4.5275591349462045;;;4.562;100.0
15558;BME280;7880;50.110;9.372;2022-11-03T00:44:39;4.658650089148432;;;4.562;100.0
15558;BME280;7880;50.110;9.372;2022-11-03T00:49:43;4.693943841202417;;;4.687;100.0
15558;BME280;7880;50.110;9.372;2022-11-03T00:54:47;4.749405480385758;;;4.75;100.0
15558;BME280;7880;50.110;9.372;2022-11-03T00:59:51;4.542685004236409;;;4.625;100.0
15558;BME280;7880;50.110;9.372;2022-11-03T01:11:50;4.537643047515303;;;4.562;100.0
15558;BME280;7880;50.110;9.372;2022-11-03T01:16:49;4.436803974211216;;;4.437;100.0
15558;BME280;7880;50.110;9.372;2022-11-03T01:21:51;3.9981553599762263;;;4.0;100.0
15558;BME280;7880;50.110;9.372;2022-11-03T01:26:56;4.3964683774858715;;;4.312;100.0
15558;BME280;7880;50.110;9.372;2022-11-03T01:32:00;4.376300586108118;;;4.312;100.0
15558;BME280;7880;50.110;9.372;2022-11-03T01:37:02;4.517475223541259;;;4.437;100.0
15558;BME280;7880;50.110;9.372;2022-11-03T01:42:10;4.59814654737711;;;4.562;100.0
15558;BME280;7880;50.110;9.372;2022-11-03T01:46:31;4.5275591349462045;;;4.562;100.0
15558;BME280;7880;50.110;9.372;2022-11-03T01:51:38;4.371258638991276;;;4.312;100.0
15558;BME280;7880;50.110;9.372;2022-11-03T01:56:41;4.406552274920978;;;4.375;100.0
15558;BME280;7880;50.110;9.372;2022-11-03T02:01:42;4.361174745630706;;;4.375;100.0
15558;BME280;7880;50.110;9.372;2022-11-03T02:06:48;4.2401681161078155;;;4.25;100.0
15558;BME280;7880;50.110;9.372;2022-11-03T02:12:06;4.346048907772638;;;4.312;100.0
15558;BME280;7880;50.110;9.372;2022-11-03T02:16:57;4.421678123256425;;;4.375;100.0
15558;BME280;7880;50.110;9.372;2022-11-03T02:22:04;4.5477269612485545;;;4.562;100.0
15558;BME280;7880;50.110;9.372;2022-11-03T02:27:03;4.532601091085235;;;4.5;100.0
15558;BME280;7880;50.110;9.372;2022-11-03T02:32:09;4.593104587454581;;;4.625;100.0
15558;BME280;7880;50.110;9.372;2022-11-03T02:37:12;4.588062627823092;;;4.625;100.0
15558;BME280;7880;50.110;9.372;2022-11-03T02:42:18;4.59814654737711;;;4.625;100.0
15558;BME280;7880;50.110;9.372;2022-11-03T02:47:17;4.507391313300468;;;4.5;100.0
15558;BME280;7880;50.110;9.372;2022-11-03T02:52:40;4.371258638991276;;;4.375;100.0
15558;BME280;7880;50.110;9.372;2022-11-03T02:57:31;4.290587524703005;;;4.25;100.0
15558;BME280;7880;50.110;9.372;2022-11-03T03:02:36;4.300671409914503;;;4.25;100.0
15558;BME280;7880;50.110;9.372;2022-11-03T03:07:49;4.421678123256425;;;4.437;100.0
15558;BME280;7880;50.110;9.372;2022-11-03T03:12:41;4.441845925111556;;;4.437;100.0
15558;BME280;7880;50.110;9.372;2022-11-03T03:17:44;4.577978709433228;;;4.562;100.0
15558;BME280;7880;50.110;9.372;2022-11-03T03:22:55;4.5477269612485545;;;4.625;100.0
15558;BME280;7880;50.110;9.372;2022-11-03T03:27:57;4.462013731623301;;;4.5;100.0
15558;BME280;7880;50.110;9.372;2022-11-03T03:33:03;4.557810876145959;;;4.562;100.0
15558;BME280;7880;50.110;9.372;2022-11-03T03:38:02;4.371258638991276;;;4.5;100.0
15558;BME280;7880;50.110;9.372;2022-11-03T03:43:06;4.335965017322451;;;4.375;100.0
15558;BME280;7880;50.110;9.372;2022-11-03T03:48:08;4.315797239914536;;;4.375;100.0
15558;BME280;7880;50.110;9.372;2022-11-03T03:53:14;4.1141197219491;;;4.125;100.0
15558;BME280;7880;50.110;9.372;2022-11-03T03:58:16;4.063700415217317;;;4.0;100.0
15558;BME280;7880;50.110;9.372;2022-11-03T04:03:24;4.27041975777247;;;4.187;100.0
15558;BME280;7880;50.110;9.372;2022-11-03T04:08:23;4.08891006494523;;;4.062;100.0
15558;BME280;7880;50.110;9.372;2022-11-03T04:27:24;4.290587524703005;;;4.312;100.0
15558;BME280;7880;50.110;9.372;2022-11-03T04:32:19;4.295629467163235;;;4.375;100.0
15558;BME280;7880;50.110;9.372;2022-11-03T04:37:19;4.411594224075088;;;4.437;100.0
15558;BME280;7880;50.110;9.372;2022-11-03T04:42:22;4.1897487366164565;;;4.25;100.0
15558;BME280;7880;50.110;9.372;2022-11-03T04:47:25;4.194790673255921;;;4.187;100.0
15558;BME280;7880;50.110;9.372;2022-11-03T04:52:29;4.204874547407963;;;4.187;100.0
15558;BME280;7880;50.110;9.372;2022-11-03T04:57:40;4.169580992968986;;;4.25;100.0
15558;BME280;7880;50.110;9.372;2022-11-03T05:02:47;3.7511013630777597;;;3.812;100.0
15558;BME280;7880;50.110;9.372;2022-11-03T05:07:46;3.796478575427318;;;3.812;100.0
15558;BME280;7880;50.110;9.372;2022-11-03T05:12:46;4.013281137589365;;;4.0;100.0
15558;BME280;7880;50.110;9.372;2022-11-03T05:17:48;4.08891006494523;;;4.125;100.0
15558;BME280;7880;50.110;9.372;2022-11-03T05:22:52;4.149413253978127;;;4.187;100.0
15558;BME280;7880;50.110;9.372;2022-11-03T05:27:57;4.280503640655661;;;4.312;100.0
15558;BME280;7880;50.110;9.372;2022-11-03T05:33:00;4.250251995498547;;;4.312;100.0
15558;BME280;7880;50.110;9.372;2022-11-03T05:38:09;4.063700415217317;;;4.125;100.0
15558;BME280;7880;50.110;9.372;2022-11-03T05:43:07;4.129245519643883;;;4.187;100.0
15558;BME280;7880;50.110;9.372;2022-11-03T05:48:15;4.220000360818813;;;4.25;100.0
15558;BME280;7880;50.110;9.372;2022-11-03T05:53:28;4.194790673255921;;;4.25;100.0
15558;BME280;7880;50.110;9.372;2022-11-03T05:58:22;4.179664864210645;;;4.25;100.0
15558;BME280;7880;50.110;9.372;2022-11-03T06:03:41;4.1645390577847134;;;4.25;100.0
15558;BME280;7880;50.110;9.372;2022-11-03T06:08:33;4.1141197219491;;;4.125;100.0
15558;BME280;7880;50.110;9.372;2022-11-03T06:13:33;4.0485746288730295;;;4.062;100.0
15558;BME280;7880;50.110;9.372;2022-11-03T06:18:36;4.169580992968986;;;4.187;100.0
15558;BME280;7880;50.110;9.372;2022-11-03T06:23:41;4.184706800268032;;;4.187;100.0
15558;BME280;7880;50.110;9.372;2022-11-03T06:28:41;4.3057133529568095;;;4.375;100.0
15558;BME280;7880;50.110;9.372;2022-11-03T06:33:44;4.295629467163235;;;4.375;100.0
15558;BME280;7880;50.110;9.372;2022-11-03T06:38:53;4.3813425335159994;;;4.437;100.0
15558;BME280;7880;50.110;9.372;2022-11-03T06:44:19;4.406552274920978;;;4.437;100.0
15558;BME280;7880;50.110;9.372;2022-11-03T06:49:01;4.512433268275345;;;4.562;100.0
15558;BME280;7880;50.110;9.372;2022-11-03T06:52:45;4.537643047515303;;;4.625;100.0
15558;BME280;7880;50.110;9.372;2022-11-03T06:57:50;4.648566162609495;;;4.75;100.0
15558;BME280;7880;50.110;9.372;2022-11-03T07:02:56;4.759489418566227;;;4.875;100.0
15558;BME280;7880;50.110;9.372;2022-11-03T07:07:59;4.941000504884869;;;4.937;100.0
15558;BME280;7880;50.110;9.372;2022-11-03T07:13:09;4.885538744047517;;;5.0;100.0
15558;BME280;7880;50.110;9.372;2022-11-03T07:18:14;4.951084465184249;;;5.062;100.0
15558;BME280;7880;50.110;9.372;2022-11-03T07:23:13;5.0771340671519285;;;5.187;100.0
15558;BME280;7880;50.110;9.372;2022-11-03T07:28:14;5.1527639156440275;;;5.25;100.0
15558;BME280;7880;50.110;9.372;2022-11-03T07:33:20;5.238477823097492;;;5.375;100.0
15558;BME280;7880;50.110;9.372;2022-11-03T07:38:21;5.29898180841119;;;5.437;100.0
15558;BME280;7880;50.110;9.372;2022-11-03T07:43:27;5.3998218770662785;;;5.5;100.0
15558;BME280;7880;50.110;9.372;2022-11-03T07:48:29;5.465367984119803;;;5.625;100.0
15558;BME280;7880;50.110;9.372;2022-11-03T07:53:35;5.510746087046573;;;5.687;100.0
15558;BME280;7880;50.110;9.372;2022-11-03T07:58:37;5.6216704378894065;;;5.75;100.0
15558;BME280;7880;50.110;9.372;2022-11-03T08:03:43;5.737636955291964;;;5.875;100.0
15558;BME280;7880;50.110;9.372;2022-11-03T08:08:48;5.788057228270918;;;5.937;100.0
15558;BME280;7880;50.110;9.372;2022-11-03T08:13:50;5.858645659335889;;;6.0;100.0
15558;BME280;7880;50.110;9.372;2022-11-03T08:18:55;5.863687692309031;;;6.0;100.0
15558;BME280;7880;50.110;9.372;2022-11-03T08:23:59;5.989738611225039;;;6.125;100.0
15558;BME280;7880;50.110;9.372;2022-11-03T08:29:03;6.085537431255216;;;6.187;100.0
15558;BME280;7880;50.110;9.372;2022-11-03T08:34:06;6.161168152862229;;;6.25;100.0
15558;BME280;7880;50.110;9.372;2022-11-03T08:39:11;6.25696716090315;;;6.312;100.0
15558;BME280;7880;50.110;9.372;2022-11-03T08:44:14;6.448565492179478;;;6.562;100.0
15558;BME280;7880;50.110;9.372;2022-11-03T08:49:17;6.57965932940715;;;6.687;100.0
15558;BME280;7880;50.110;9.372;2022-11-03T08:54:28;6.6502484001743145;;;6.812;100.0
15558;BME280;7880;50.110;9.372;2022-11-03T08:59:30;6.670416716585168;;;6.812;100.0
15558;BME280;7880;50.110;9.372;2022-11-03T09:04:30;6.720837527984986;;;6.875;100.0
15558;BME280;7880;50.110;9.372;2022-11-03T09:09:40;6.851931773830438;;;7.0;100.0
15558;BME280;7880;50.110;9.372;2022-11-03T09:14:40;7.02336300756433;;;7.187;100.0
15558;BME280;7880;50.110;9.372;2022-11-03T09:19:46;7.109078750596382;;;7.25;100.0
15558;BME280;7880;50.110;9.372;2022-11-03T09:24:50;7.144373492762679;;;7.312;100.0
15558;BME280;7880;50.110;9.372;2022-11-03T09:29:52;7.2855526040366385;;;7.437;100.0
15558;BME280;7880;50.110;9.372;2022-11-03T09:34:56;7.391437087231315;;;7.5;100.0
15558;BME280;7880;50.110;9.372;2022-11-03T09:40:08;7.7242177271284165;;;7.75;100.0
15558;BME280;7880;50.110;9.372;2022-11-03T09:45:09;7.951114344835514;;;8.062;100.0
15558;BME280;7880;50.110;9.372;2022-11-03T09:50:16;8.011620209092507;;;8.187;100.0
15558;BME280;7880;50.110;9.372;2022-11-03T09:55:21;8.056999634788372;;;8.187;100.0
15558;BME280;7880;50.110;9.372;2022-11-03T10:00:27;8.082210437027971;;;8.25;100.0
15558;BME280;7880;50.110;9.372;2022-11-03T10:05:26;8.162885053089122;;;8.312;100.0
15558;BME280;7880;50.110;9.372;2022-11-03T10:10:33;8.208264557365329;;;8.375;100.0
15558;BME280;7880;50.110;9.372;2022-11-03T10:15:41;8.29902363664005;;;8.437;100.0
15558;BME280;7880;50.110;9.372;2022-11-03T10:20:40;8.309107984602452;;;8.437;100.0
15558;BME280;7880;50.110;9.372;2022-11-03T10:25:44;8.334318859601627;;;8.5;100.0
15558;BME280;7880;50.110;9.372;2022-11-03T10:30:51;8.515837374381954;;;8.625;100.0
15558;BME280;7880;50.110;9.372;2022-11-03T10:35:50;8.576343629794428;;;8.687;100.0
15558;BME280;7880;50.110;9.372;2022-11-03T10:40:54;8.772989249322563;;;8.875;100.0
15558;BME280;7880;50.110;9.372;2022-11-03T10:46:09;8.989804163441296;;;9.062;100.0
15558;BME280;7880;50.110;9.372;2022-11-03T10:51:01;9.080564054712886;;;9.187;100.0
15558;BME280;7880;50.110;9.372;2022-11-03T10:56:05;9.211661841912427;;;9.375;100.0
15558;BME280;7880;50.110;9.372;2022-11-03T11:01:09;9.362928763922536;;;9.5;100.0
15558;BME280;7880;50.110;9.372;2022-11-03T11:06:20;9.514195947867119;;;9.687;100.0
15558;BME280;7880;50.110;9.372;2022-11-03T11:11:17;9.625125382567058;;;9.75;100.0
15558;BME280;7880;50.110;9.372;2022-11-03T11:16:52;9.736054958129534;;;9.875;100.0
15558;BME280;7880;50.110;9.372;2022-11-03T11:22:11;9.77135076171253;;;9.937;100.0
15558;BME280;7880;50.110;9.372;2022-11-03T11:26:51;9.786477539042243;;;9.937;100.0
15558;BME280;7880;50.110;9.372;2022-11-03T11:32:49;9.695716914354126;;;9.875;100.0
15558;BME280;7880;50.110;9.372;2022-11-03T11:37:36;9.61504088268266;;;9.812;100.0
15558;BME280;7880;50.110;9.372;2022-11-03T11:43:47;9.579745142254978;;;9.687;100.0
15558;BME280;7880;50.110;9.372;2022-11-03T11:48:26;9.655378889205167;;;9.75;100.0
15558;BME280;7880;50.110;9.372;2022-11-03T11:53:38;9.645294385828311;;;9.75;100.0
15558;BME280;7880;50.110;9.372;2022-11-03T11:56:54;9.61504088268266;;;9.75;100.0
15558;BME280;7880;50.110;9.372;2022-11-03T12:02:00;9.715885933913523;;;9.812;100.0
15558;BME280;7880;50.110;9.372;2022-11-03T12:07:00;9.655378889205167;;;9.75;100.0
15558;BME280;7880;50.110;9.372;2022-11-03T12:12:04;9.715885933913523;;;9.75;100.0
15558;BME280;7880;50.110;9.372;2022-11-03T12:17:39;9.791519798734225;;;9.875;100.0
15558;BME280;7880;50.110;9.372;2022-11-03T12:22:50;9.857069201214472;;;9.937;100.0
15558;BME280;7880;50.110;9.372;2022-11-03T12:27:45;9.7814352796413;;;9.875;100.0
15558;BME280;7880;50.110;9.372;2022-11-03T12:32:34;9.786477539042243;;;9.812;100.0
15558;BME280;7880;50.110;9.372;2022-11-03T12:42:41;9.922618652880193;;;10.0;100.0
15558;BME280;7880;50.110;9.372;2022-11-03T12:57:56;10.053717703768053;;;10.125;100.0
15558;BME280;7880;50.110;9.372;2022-11-03T13:02:57;10.12935186108225;;;10.187;100.0
15558;BME280;7880;50.110;9.372;2022-11-03T13:08:03;10.134394140564837;;;10.25;100.0
15558;BME280;7880;50.110;9.372;2022-11-03T13:13:07;10.078929082263494;;;10.125;100.0
15558;BME280;7880;50.110;9.372;2022-11-03T13:18:11;10.078929082263494;;;10.125;100.0
15558;BME280;7880;50.110;9.372;2022-11-03T13:23:15;10.089013635698938;;;10.125;100.0
15558;BME280;7880;50.110;9.372;2022-11-03T13:28:27;10.164647823572158;;;10.187;100.0
15558;BME280;7880;50.110;9.372;2022-11-03T13:33:24;10.174732386902907;;;10.187;100.0
15558;BME280;7880;50.110;9.372;2022-11-03T13:38:34;10.104140468034894;;;10.125;100.0
15558;BME280;7880;50.110;9.372;2022-11-03T13:43:33;10.31087410580949;;;10.312;100.0
15558;BME280;7880;50.110;9.372;2022-11-03T13:48:41;10.270535796607145;;;10.312;100.0
15558;BME280;7880;50.110;9.372;2022-11-03T13:53:42;10.34617014164105;;;10.375;100.0
15558;BME280;7880;50.110;9.372;2022-11-03T13:58:46;10.295747237675823;;;10.375;100.0
15558;BME280;7880;50.110;9.372;2022-11-03T14:03:49;10.341127849934855;;;10.375;100.0
15558;BME280;7880;50.110;9.372;2022-11-03T14:08:54;10.305831816140563;;;10.312;100.0
15558;BME280;7880;50.110;9.372;2022-11-03T14:14:16;10.295747237675823;;;10.312;100.0
15558;BME280;7880;50.110;9.372;2022-11-03T14:19:02;10.336085558519699;;;10.375;100.0
15558;BME280;7880;50.110;9.372;2022-11-03T14:24:06;10.33104326739558;;;10.312;100.0
15558;BME280;7880;50.110;9.372;2022-11-03T14:29:09;10.320958686020457;;;10.312;100.0
15558;BME280;7880;50.110;9.372;2022-11-03T14:34:17;10.265493509266525;;;10.312;100.0
15558;BME280;7880;50.110;9.372;2022-11-03T14:39:18;10.245324362814426;;;10.25;100.0
15558;BME280;7880;50.110;9.372;2022-11-03T14:44:21;10.199943800322945;;;10.187;100.0
15558;BME280;7880;50.110;9.372;2022-11-03T14:49:24;10.235239791334607;;;10.187;100.0
15558;BME280;7880;50.110;9.372;2022-11-03T14:54:30;10.230197506031255;;;10.187;100.0
15558;BME280;7880;50.110;9.372;2022-11-03T14:59:33;10.250366648990894;;;10.187;100.0
15558;BME280;7880;50.110;9.372;2022-11-03T15:04:38;10.19490151705686;;;10.187;100.0
15558;BME280;7880;50.110;9.372;2022-11-03T15:09:43;10.199943800322945;;;10.187;100.0
15558;BME280;7880;50.110;9.372;2022-11-03T15:14:45;10.189859234081814;;;10.25;100.0
15558;BME280;7880;50.110;9.372;2022-11-03T15:19:50;10.154563261405565;;;10.187;100.0
15558;BME280;7880;50.110;9.372;2022-11-03T15:24:53;10.174732386902907;;;10.187;100.0
15558;BME280;7880;50.110;9.372;2022-11-03T15:29:56;10.083971358835697;;;10.062;100.0
15558;BME280;7880;50.110;9.372;2022-11-03T15:34:59;10.149520980758826;;;10.125;100.0
15558;BME280;7880;50.110;9.372;2022-11-03T15:40:05;10.104140468034894;;;10.062;100.0
15558;BME280;7880;50.110;9.372;2022-11-03T15:45:08;10.094055912853218;;;10.062;100.0
15558;BME280;7880;50.110;9.372;2022-11-03T15:50:16;10.028506332548568;;;10.0;100.0
15558;BME280;7880;50.110;9.372;2022-11-03T15:55:14;9.978083611937473;;;9.937;100.0
15558;BME280;7880;50.110;9.372;2022-11-03T16:00:19;9.998252696689452;;;10.0;100.0
15558;BME280;7880;50.110;9.372;2022-11-03T16:05:22;9.937745456403354;;;9.937;100.0
15558;BME280;7880;50.110;9.372;2022-11-03T16:10:25;9.811688840412534;;;9.812;100.0
15558;BME280;7880;50.110;9.372;2022-11-03T16:15:29;9.872195993387141;;;9.875;100.0
15558;BME280;7880;50.110;9.372;2022-11-03T16:20:33;9.887322788179153;;;9.875;100.0
15558;BME280;7880;50.110;9.372;2022-11-03T16:25:37;9.912534118653275;;;9.875;100.0
15558;BME280;7880;50.110;9.372;2022-11-03T16:30:45;9.882280522957444;;;9.875;100.0
15558;BME280;7880;50.110;9.372;2022-11-03T16:35:48;9.831857886747457;;;9.812;100.0
15558;BME280;7880;50.110;9.372;2022-11-03T16:40:53;9.887322788179153;;;9.812;100.0
15558;BME280;7880;50.110;9.372;2022-11-03T16:45:58;9.791519798734225;;;9.812;100.0
15558;BME280;7880;50.110;9.372;2022-11-03T16:51:00;9.846984674554552;;;9.812;100.0
15558;BME280;7880;50.110;9.372;2022-11-03T16:56:08;9.8066465795564;;;9.812;100.0
15558;BME280;7880;50.110;9.372;2022-11-03T17:01:05;9.831857886747457;;;9.812;100.0
15558;BME280;7880;50.110;9.372;2022-11-03T17:06:12;9.725970445439453;;;9.687;100.0
15558;BME280;7880;50.110;9.372;2022-11-03T17:11:14;9.786477539042243;;;9.75;100.0
15558;BME280;7880;50.110;9.372;2022-11-03T17:16:19;9.76126624494791;;;9.75;100.0
15558;BME280;7880;50.110;9.372;2022-11-03T17:21:25;9.947829993540655;;;9.875;100.0
15558;BME280;7880;50.110;9.372;2022-11-03T17:26:29;9.82681562472717;;;9.812;100.0
15558;BME280;7880;50.110;9.372;2022-11-03T17:31:31;9.8066465795564;;;9.812;100.0
15558;BME280;7880;50.110;9.372;2022-11-03T17:36:42;9.8066465795564;;;9.812;100.0
15558;BME280;7880;50.110;9.372;2022-11-03T17:41:39;9.8066465795564;;;9.812;100.0
15558;BME280;7880;50.110;9.372;2022-11-03T17:46:43;9.816731101559707;;;9.812;100.0
15558;BME280;7880;50.110;9.372;2022-11-03T17:51:45;9.82177336299792;;;9.812;100.0
15558;BME280;7880;50.110;9.372;2022-11-03T17:56:49;9.82681562472717;;;9.812;100.0
15558;BME280;7880;50.110;9.372;2022-11-03T18:02:01;9.685632406320655;;;9.687;100.0
15558;BME280;7880;50.110;9.372;2022-11-03T18:06:58;9.685632406320655;;;9.687;100.0
15558;BME280;7880;50.110;9.372;2022-11-03T18:18:57;9.69067466019187;;;9.625;100.0
15558;BME280;7880;50.110;9.372;2022-11-03T18:23:58;9.715885933913523;;;9.687;100.0
15558;BME280;7880;50.110;9.372;2022-11-03T18:29:03;9.695716914354126;;;9.687;100.0
15558;BME280;7880;50.110;9.372;2022-11-03T18:34:12;9.74613947198377;;;9.75;100.0
15558;BME280;7880;50.110;9.372;2022-11-03T18:39:11;9.625125382567058;;;9.625;100.0
15558;BME280;7880;50.110;9.372;2022-11-03T18:44:16;9.705801423551748;;;9.687;100.0
15558;BME280;7880;50.110;9.372;2022-11-03T18:49:22;9.635209883615607;;;9.687;100.0
15558;BME280;7880;50.110;9.372;2022-11-03T18:54:22;9.69067466019187;;;9.687;100.0
15558;BME280;7880;50.110;9.372;2022-11-03T18:59:28;9.655378889205167;;;9.687;100.0
15558;BME280;7880;50.110;9.372;2022-11-03T19:04:32;9.705801423551748;;;9.687;100.0
15558;BME280;7880;50.110;9.372;2022-11-03T19:09:34;9.700759168807418;;;9.687;100.0
15558;BME280;7880;50.110;9.372;2022-11-03T19:14:54;9.64025213457644;;;9.687;100.0
15558;BME280;7880;50.110;9.372;2022-11-03T19:19:45;9.710843678587116;;;9.687;100.0
15558;BME280;7880;50.110;9.372;2022-11-03T19:24:49;9.65033663737122;;;9.625;100.0
15558;BME280;7880;50.110;9.372;2022-11-03T19:29:56;9.65033663737122;;;9.625;100.0
15558;BME280;7880;50.110;9.372;2022-11-03T19:35:03;9.61504088268266;;;9.625;100.0
15558;BME280;7880;50.110;9.372;2022-11-03T19:40:06;9.579745142254978;;;9.562;100.0
15558;BME280;7880;50.110;9.372;2022-11-03T19:45:12;9.539407170657068;;;9.5;100.0
15558;BME280;7880;50.110;9.372;2022-11-03T19:50:20;9.64025213457644;;;9.562;100.0
15558;BME280;7880;50.110;9.372;2022-11-03T19:55:26;9.645294385828311;;;9.625;100.0
15558;BME280;7880;50.110;9.372;2022-11-03T20:00:27;9.579745142254978;;;9.562;100.0
15558;BME280;7880;50.110;9.372;2022-11-03T20:05:37;9.579745142254978;;;9.562;100.0
15558;BME280;7880;50.110;9.372;2022-11-03T20:10:37;9.544449416088174;;;9.5;100.0
15558;BME280;7880;50.110;9.372;2022-11-03T20:15:42;9.554533907823497;;;9.562;100.0
15558;BME280;7880;50.110;9.372;2022-11-03T20:20:49;9.539407170657068;;;9.5;100.0
15558;BME280;7880;50.110;9.372;2022-11-03T20:25:50;9.509153704182244;;;9.5;100.0
15558;BME280;7880;50.110;9.372;2022-11-03T20:30:55;9.443604562763358;;;9.437;100.0
15558;BME280;7880;50.110;9.372;2022-11-03T20:35:59;9.519238191843034;;;9.5;100.0
15558;BME280;7880;50.110;9.372;2022-11-03T20:41:12;9.554533907823497;;;9.5;100.0
15558;BME280;7880;50.110;9.372;2022-11-03T20:46:17;9.524280436109985;;;9.437;100.0
15558;BME280;7880;50.110;9.372;2022-11-03T20:51:13;9.38813994305674;;;9.375;100.0
15558;BME280;7880;50.110;9.372;2022-11-03T20:56:18;9.514195947867119;;;9.437;100.0
15558;BME280;7880;50.110;9.372;2022-11-03T21:01:24;9.509153704182244;;;9.437;100.0
15558;BME280;7880;50.110;9.372;2022-11-03T21:06:28;9.534364925517002;;;9.5;100.0
15558;BME280;7880;50.110;9.372;2022-11-03T21:11:32;9.443604562763358;;;9.437;100.0
15558;BME280;7880;50.110;9.372;2022-11-03T21:24:20;9.352844294306124;;;9.312;100.0
15558;BME280;7880;50.110;9.372;2022-11-03T21:29:24;9.418393367622048;;;9.375;100.0
15558;BME280;7880;50.110;9.372;2022-11-03T21:34:29;9.443604562763358;;;9.375;100.0
15558;BME280;7880;50.110;9.372;2022-11-03T21:39:32;9.383097706647822;;;9.375;100.0
15558;BME280;7880;50.110;9.372;2022-11-03T21:44:36;9.367970999167301;;;9.375;100.0
15558;BME280;7880;50.110;9.372;2022-11-03T21:49:47;9.362928763922536;;;9.312;100.0
15558;BME280;7880;50.110;9.372;2022-11-03T21:54:43;9.35788652896881;;;9.312;100.0
15558;BME280;7880;50.110;9.372;2022-11-03T21:59:45;9.39822441674769;;;9.375;100.0
15558;BME280;7880;50.110;9.372;2022-11-03T22:04:49;9.408308891602791;;;9.375;100.0
15558;BME280;7880;50.110;9.372;2022-11-03T22:09:15;9.393182179756696;;;9.375;100.0
15558;BME280;7880;50.110;9.372;2022-11-03T22:14:19;9.367970999167301;;;9.312;100.0
15558;BME280;7880;50.110;9.372;2022-11-03T22:27:21;9.423435606068233;;;9.375;100.0
15558;BME280;7880;50.110;9.372;2022-11-03T22:32:01;9.4133511294669;;;9.375;100.0
15558;BME280;7880;50.110;9.372;2022-11-03T22:37:08;9.362928763922536;;;9.312;100.0
15558;BME280;7880;50.110;9.372;2022-11-03T22:49:02;9.509153704182244;;;9.5;100.0
15558;BME280;7880;50.110;9.372;2022-11-03T22:54:10;9.599914135038853;;;9.562;100.0
15558;BME280;7880;50.110;9.372;2022-11-03T22:59:07;9.604956383962417;;;9.562;100.0
15558;BME280;7880;50.110;9.372;2022-11-03T23:04:10;9.599914135038853;;;9.625;100.0
15558;BME280;7880;50.110;9.372;2022-11-03T23:09:15;9.604956383962417;;;9.625;100.0
15558;BME280;7880;50.110;9.372;2022-11-03T23:14:20;9.559576154127717;;;9.562;100.0
15558;BME280;7880;50.110;9.372;2022-11-03T23:26:10;9.872195993387141;;;9.875;100.0
15558;BME280;7880;50.110;9.372;2022-11-03T23:31:16;9.922618652880193;;;9.937;100.0
15558;BME280;7880;50.110;9.372;2022-11-03T23:36:20;9.952872262545862;;;10.0;100.0
15558;BME280;7880;50.110;9.372;2022-11-03T23:41:23;9.957914531842107;;;10.0;100.0
15558;BME280;7880;50.110;9.372;2022-11-03T23:53:20;9.922618652880193;;;9.937;100.0
15558;BME280;7880;50.110;9.372;2022-11-03T23:58:24;9.947829993540655;;;10.0;100.0
